createdAt,value
2019-02-25T00:03:28.982Z,10.37
2019-02-25T00:06:10.122Z,9.00
2019-02-25T00:08:50.670Z,9.13
2019-02-25T00:11:31.236Z,8.07
2019-02-25T00:14:12.012Z,8.73
2019-02-25T00:16:52.908Z,9.00
2019-02-25T00:19:33.905Z,8.30
2019-02-25T00:22:14.703Z,8.93
2019-02-25T00:24:55.411Z,7.97
2019-02-25T00:27:36.651Z,8.37
2019-02-25T00:30:17.419Z,9.03
2019-02-25T00:32:58.249Z,8.93
2019-02-25T00:35:39.684Z,8.53
2019-02-25T00:38:20.247Z,9.07
2019-02-25T00:41:01.028Z,9.40
2019-02-25T00:43:41.675Z,8.90
2019-02-25T00:46:22.075Z,8.80
2019-02-25T00:49:03.337Z,7.80
2019-02-25T00:51:44.677Z,8.10
2019-02-25T00:54:25.165Z,8.50
2019-02-25T00:57:05.959Z,8.30
2019-02-25T00:59:46.881Z,8.47
2019-02-25T01:02:28.250Z,7.53
2019-02-25T01:05:09.005Z,7.47
2019-02-25T01:07:49.983Z,8.07
2019-02-25T01:10:30.726Z,8.97
2019-02-25T01:13:11.583Z,8.77
2019-02-25T01:15:52.503Z,8.13
2019-02-25T01:18:32.872Z,8.23
2019-02-25T01:21:13.947Z,7.90
2019-02-25T01:23:54.687Z,7.90
2019-02-25T01:26:35.792Z,8.00
2019-02-25T01:29:17.132Z,7.30
2019-02-25T01:31:58.375Z,8.43
2019-02-25T01:34:39.443Z,8.80
2019-02-25T01:37:20.614Z,8.53
2019-02-25T01:40:01.267Z,8.53
2019-02-25T01:42:42.495Z,7.90
2019-02-25T01:45:23.156Z,8.57
2019-02-25T01:48:04.196Z,8.50
2019-02-25T01:50:45.759Z,8.27
2019-02-25T01:53:26.267Z,6.87
2019-02-25T01:56:06.900Z,7.20
2019-02-25T01:58:47.379Z,7.10
2019-02-25T02:01:28.260Z,7.50
2019-02-25T02:04:09.882Z,7.13
2019-02-25T02:06:50.898Z,8.70
2019-02-25T02:09:32.471Z,7.93
2019-02-25T02:12:13.377Z,8.30
2019-02-25T02:14:54.678Z,8.03
2019-02-25T02:17:35.783Z,8.53
2019-02-25T02:20:16.776Z,8.20
2019-02-25T02:22:58.084Z,9.10
2019-02-25T02:25:39.002Z,8.20
2019-02-25T02:28:20.055Z,8.13
2019-02-25T02:31:00.765Z,8.17
2019-02-25T02:33:42.003Z,9.87
2019-02-25T02:36:22.719Z,12.13
2019-02-25T02:39:04.388Z,10.53
2019-02-25T02:41:45.319Z,9.20
2019-02-25T02:44:25.759Z,8.00
2019-02-25T02:47:06.957Z,10.00
2019-02-25T02:49:48.219Z,8.70
2019-02-25T02:52:27.769Z,9.40
2019-02-25T02:55:08.623Z,9.90
2019-02-25T02:57:49.563Z,10.50
2019-02-25T03:00:30.773Z,10.43
2019-02-25T03:03:10.770Z,11.00
2019-02-25T03:05:51.698Z,10.30
2019-02-25T03:08:32.269Z,9.83
2019-02-25T03:11:13.502Z,9.53
2019-02-25T03:13:54.203Z,10.30
2019-02-25T03:16:35.495Z,9.33
2019-02-25T03:19:16.557Z,9.03
2019-02-25T03:21:57.076Z,9.73
2019-02-25T03:24:38.391Z,9.03
2019-02-25T03:27:18.852Z,8.77
2019-02-25T03:29:59.301Z,9.23
2019-02-25T03:32:40.107Z,8.23
2019-02-25T03:35:20.871Z,9.77
2019-02-25T03:38:01.485Z,9.60
2019-02-25T03:40:42.621Z,9.40
2019-02-25T03:43:23.881Z,9.27
2019-02-25T03:46:04.715Z,8.87
2019-02-25T03:48:46.043Z,8.17
2019-02-25T03:51:27.039Z,11.00
2019-02-25T03:54:08.338Z,10.50
2019-02-25T03:56:49.013Z,9.67
2019-02-25T03:59:30.363Z,8.53
2019-02-25T04:02:11.333Z,9.93
2019-02-25T04:04:52.127Z,8.83
2019-02-25T04:07:32.945Z,9.43
2019-02-25T04:10:13.699Z,8.77
2019-02-25T04:12:54.363Z,8.87
2019-02-25T04:15:41.300Z,9.33
2019-02-25T04:18:22.557Z,8.77
2019-02-25T04:21:03.279Z,10.40
2019-02-25T04:23:44.682Z,8.93
2019-02-25T04:26:25.112Z,9.30
2019-02-25T04:29:05.582Z,9.67
2019-02-25T04:31:46.170Z,9.63
2019-02-25T04:34:26.851Z,9.33
2019-02-25T04:37:07.381Z,9.57
2019-02-25T04:39:48.224Z,7.90
2019-02-25T04:42:29.120Z,9.90
2019-02-25T04:45:09.837Z,8.80
2019-02-25T04:47:50.633Z,8.77
2019-02-25T04:50:31.681Z,8.20
2019-02-25T04:53:12.539Z,8.37
2019-02-25T04:55:53.326Z,8.57
2019-02-25T04:58:34.461Z,8.47
2019-02-25T05:01:15.204Z,9.27
2019-02-25T05:03:55.684Z,9.83
2019-02-25T05:06:36.780Z,9.90
2019-02-25T05:09:17.983Z,8.87
2019-02-25T05:11:58.772Z,9.57
2019-02-25T05:14:40.053Z,9.87
2019-02-25T05:17:20.945Z,9.30
2019-02-25T05:20:00.685Z,8.67
2019-02-25T05:22:41.745Z,8.60
2019-02-25T05:25:22.435Z,9.67
2019-02-25T05:28:02.824Z,10.50
2019-02-25T05:30:43.643Z,10.73
2019-02-25T05:33:24.057Z,10.37
2019-02-25T05:36:04.856Z,11.53
2019-02-25T05:38:44.536Z,9.80
2019-02-25T05:41:25.533Z,9.17
2019-02-25T05:44:08.473Z,9.40
2019-02-25T05:46:48.328Z,9.53
2019-02-25T05:49:29.049Z,9.40
2019-02-25T05:52:09.935Z,9.27
2019-02-25T05:54:50.700Z,10.00
2019-02-25T05:57:31.538Z,8.63
2019-02-25T06:00:13.220Z,8.40
2019-02-25T06:02:54.388Z,8.83
2019-02-25T06:05:35.374Z,8.63
2019-02-25T06:08:16.537Z,8.33
2019-02-25T06:10:57.523Z,9.07
2019-02-25T06:13:38.159Z,8.90
2019-02-25T06:16:18.991Z,8.90
2019-02-25T06:18:59.612Z,9.10
2019-02-25T06:21:40.398Z,10.13
2019-02-25T06:24:20.959Z,10.03
2019-02-25T06:27:01.779Z,9.20
2019-02-25T06:29:43.092Z,10.60
2019-02-25T06:32:23.792Z,10.60
2019-02-25T06:35:04.697Z,10.83
2019-02-25T06:37:45.342Z,10.53
2019-02-25T06:40:26.240Z,10.57
2019-02-25T06:43:07.216Z,12.03
2019-02-25T06:45:48.053Z,13.13
2019-02-25T06:48:28.495Z,12.77
2019-02-25T06:51:09.062Z,14.10
2019-02-25T06:53:49.580Z,15.23
2019-02-25T06:56:30.699Z,15.27
2019-02-25T06:59:11.075Z,14.33
2019-02-25T07:01:51.709Z,13.30
2019-02-25T07:04:37.907Z,13.93
2019-02-25T07:07:28.382Z,13.97
2019-02-25T07:10:28.415Z,12.03
2019-02-25T07:13:29.135Z,13.37
2019-02-25T07:16:20.023Z,13.60
2019-02-25T07:19:22.725Z,11.37
2019-02-25T07:22:10.660Z,11.47
2019-02-25T07:24:59.501Z,11.03
2019-02-25T07:28:00.369Z,10.60
2019-02-25T07:30:58.022Z,10.77
2019-02-25T07:33:57.815Z,11.37
2019-02-25T07:37:00.581Z,10.43
2019-02-25T07:43:07.892Z,10.17
2019-02-25T07:46:09.209Z,10.00
2019-02-25T07:49:15.332Z,10.60
2019-02-25T07:52:02.157Z,9.30
2019-02-25T07:57:55.202Z,9.90
2019-02-25T08:01:03.550Z,11.00
2019-02-25T08:03:53.153Z,10.47
2019-02-25T08:06:52.973Z,10.33
2019-02-25T08:09:55.579Z,9.20
2019-02-25T08:12:43.353Z,9.33
2019-02-25T08:18:41.668Z,10.43
2019-02-25T08:21:44.675Z,11.47
2019-02-25T08:27:36.972Z,9.87
2019-02-25T08:30:44.130Z,11.10
2019-02-25T08:33:45.663Z,10.07
2019-02-25T08:36:34.091Z,10.10
2019-02-25T08:39:30.446Z,10.43
2019-02-25T08:42:19.436Z,12.07
2019-02-25T08:45:06.212Z,10.27
2019-02-25T08:47:53.803Z,10.77
2019-02-25T08:50:35.015Z,9.83
2019-02-25T08:53:16.071Z,10.27
2019-02-25T08:55:58.304Z,10.70
2019-02-25T08:58:38.759Z,9.57
2019-02-25T09:01:19.750Z,9.53
2019-02-25T09:04:00.654Z,10.37
2019-02-25T09:06:42.015Z,10.03
2019-02-25T09:09:22.472Z,10.20
2019-02-25T09:12:02.935Z,10.80
2019-02-25T09:14:43.712Z,9.80
2019-02-25T09:17:24.675Z,10.37
2019-02-25T09:20:05.383Z,9.83
2019-02-25T09:22:46.643Z,8.80
2019-02-25T09:25:15.749Z,9.50
2019-02-25T09:28:03.991Z,9.43
2019-02-25T09:30:52.184Z,9.40
2019-02-25T09:33:33.318Z,8.90
2019-02-25T09:36:14.131Z,8.43
2019-02-25T09:38:56.635Z,8.40
2019-02-25T09:41:37.024Z,7.93
2019-02-25T09:44:17.811Z,7.67
2019-02-25T09:46:58.351Z,9.00
2019-02-25T09:49:39.592Z,7.90
2019-02-25T09:52:20.194Z,8.33
2019-02-25T09:57:39.846Z,7.87
2019-02-25T10:00:20.743Z,7.60
2019-02-25T10:03:01.985Z,7.03
2019-02-25T10:05:42.584Z,8.00
2019-02-25T10:08:23.274Z,7.23
2019-02-25T10:11:04.041Z,7.13
2019-02-25T10:13:44.943Z,7.10
2019-02-25T10:16:25.769Z,6.73
2019-02-25T10:19:06.640Z,7.23
2019-02-25T10:21:47.315Z,7.27
2019-02-25T10:24:28.103Z,6.47
2019-02-25T10:27:09.024Z,6.87
2019-02-25T10:29:49.921Z,7.47
2019-02-25T10:32:30.789Z,6.47
2019-02-25T10:35:11.702Z,6.97
2019-02-25T10:37:52.955Z,6.43
2019-02-25T10:40:33.735Z,6.50
2019-02-25T10:43:14.357Z,6.63
2019-02-25T10:45:55.121Z,5.50
2019-02-25T10:48:36.294Z,5.90
2019-02-25T10:51:16.926Z,5.73
2019-02-25T10:53:57.667Z,6.33
2019-02-25T10:56:38.816Z,6.30
2019-02-25T10:59:19.843Z,5.40
2019-02-25T11:02:00.899Z,5.63
2019-02-25T11:04:41.758Z,6.40
2019-02-25T11:07:22.765Z,6.70
2019-02-25T11:10:09.465Z,5.77
2019-02-25T11:12:50.427Z,5.63
2019-02-25T11:15:32.428Z,8.37
2019-02-25T11:18:13.367Z,6.47
2019-02-25T11:20:54.229Z,6.47
2019-02-25T11:23:35.164Z,6.03
2019-02-25T11:26:15.850Z,5.77
2019-02-25T11:28:56.731Z,6.03
2019-02-25T11:31:37.517Z,5.37
2019-02-25T11:34:18.143Z,6.13
2019-02-25T11:36:59.503Z,7.13
2019-02-25T11:39:40.727Z,7.10
2019-02-25T11:42:21.674Z,6.97
2019-02-25T11:45:04.474Z,5.90
2019-02-25T11:47:44.992Z,6.13
2019-02-25T11:50:25.972Z,6.20
2019-02-25T11:53:05.814Z,5.63
2019-02-25T11:55:46.899Z,5.80
2019-02-25T11:58:27.683Z,5.70
2019-02-25T12:01:08.587Z,5.63
2019-02-25T12:03:49.379Z,5.27
2019-02-25T12:06:30.198Z,5.10
2019-02-25T12:09:10.980Z,5.60
2019-02-25T12:11:52.063Z,5.70
2019-02-25T12:14:33.701Z,5.40
2019-02-25T12:17:14.760Z,5.40
2019-02-25T12:19:55.505Z,4.73
2019-02-25T12:22:36.403Z,4.60
2019-02-25T12:25:17.188Z,4.40
2019-02-25T12:27:58.200Z,4.70
2019-02-25T12:30:38.914Z,4.20
2019-02-25T12:33:19.669Z,4.87
2019-02-25T12:36:00.327Z,4.80
2019-02-25T12:38:40.891Z,4.37
2019-02-25T12:41:21.344Z,4.17
2019-02-25T12:44:02.498Z,4.30
2019-02-25T12:46:42.928Z,3.50
2019-02-25T12:49:23.580Z,3.63
2019-02-25T12:52:04.246Z,3.93
2019-02-25T12:54:45.272Z,3.70
2019-02-25T12:57:25.962Z,3.67
2019-02-25T13:00:06.948Z,3.43
2019-02-25T13:02:48.017Z,3.57
2019-02-25T13:05:28.992Z,2.93
2019-02-25T13:08:09.849Z,3.23
2019-02-25T13:10:50.839Z,3.20
2019-02-25T13:13:31.598Z,3.80
2019-02-25T13:16:12.303Z,3.93
2019-02-25T13:18:53.399Z,4.10
2019-02-25T13:21:34.043Z,3.70
2019-02-25T13:24:14.871Z,3.30
2019-02-25T13:26:55.597Z,3.27
2019-02-25T13:29:36.464Z,3.43
2019-02-25T13:32:17.108Z,3.33
2019-02-25T13:34:57.004Z,3.60
2019-02-25T13:37:38.008Z,3.73
2019-02-25T13:40:18.804Z,3.40
2019-02-25T13:42:59.500Z,3.30
2019-02-25T13:45:40.069Z,3.67
2019-02-25T13:48:20.827Z,3.30
2019-02-25T13:51:01.785Z,3.53
2019-02-25T13:53:42.608Z,3.70
2019-02-25T13:56:23.492Z,3.37
2019-02-25T13:59:04.246Z,3.47
2019-02-25T14:01:43.976Z,3.53
2019-02-25T14:04:24.974Z,3.30
2019-02-25T14:07:06.276Z,3.10
2019-02-25T14:09:47.227Z,3.43
2019-02-25T14:12:27.907Z,3.27
2019-02-25T14:15:08.319Z,3.03
2019-02-25T14:17:49.721Z,2.70
2019-02-25T14:20:30.874Z,2.60
2019-02-25T14:23:11.848Z,2.40
2019-02-25T14:25:52.512Z,2.90
2019-02-25T14:28:33.535Z,2.60
2019-02-25T14:31:14.359Z,2.60
2019-02-25T14:33:55.125Z,2.47
2019-02-25T14:36:36.251Z,2.33
2019-02-25T14:39:17.462Z,2.40
2019-02-25T14:41:59.300Z,2.23
2019-02-25T14:44:43.294Z,2.10
2019-02-25T14:47:29.887Z,2.13
2019-02-25T14:50:05.946Z,2.23
2019-02-25T14:52:45.668Z,2.10
2019-02-25T14:55:26.721Z,2.07
2019-02-25T14:57:59.892Z,2.07
2019-02-25T15:00:45.812Z,2.10
2019-02-25T15:03:27.424Z,2.00
2019-02-25T15:06:10.063Z,1.80
2019-02-25T15:08:39.139Z,2.03
2019-02-25T15:11:27.536Z,1.93
2019-02-25T15:14:17.121Z,1.90
2019-02-25T15:16:58.061Z,2.10
2019-02-25T15:19:40.781Z,2.20
2019-02-25T15:22:22.377Z,2.30
2019-02-25T15:25:03.330Z,2.30
2019-02-25T15:27:44.173Z,2.10
2019-02-25T15:30:27.688Z,1.80
2019-02-25T15:33:07.771Z,1.77
2019-02-25T15:35:48.886Z,1.90
2019-02-25T15:38:30.884Z,2.13
2019-02-25T15:41:11.870Z,2.20
2019-02-25T15:43:52.735Z,2.30
2019-02-25T15:46:33.508Z,1.97
2019-02-25T15:49:16.909Z,2.50
2019-02-25T15:51:57.322Z,2.43
2019-02-25T15:54:39.352Z,3.80
2019-02-25T15:57:22.576Z,3.37
2019-02-25T16:00:04.202Z,2.47
2019-02-25T16:02:44.999Z,2.30
2019-02-25T16:08:04.591Z,2.67
2019-02-25T16:10:44.283Z,2.50
2019-02-25T16:13:25.575Z,2.70
2019-02-25T16:16:06.462Z,2.40
2019-02-25T16:18:46.918Z,2.80
2019-02-25T16:21:27.671Z,2.70
2019-02-25T16:24:11.805Z,2.73
2019-02-25T16:26:51.232Z,2.50
2019-02-25T16:29:32.061Z,2.20
2019-02-25T16:32:12.983Z,2.63
2019-02-25T16:34:53.521Z,2.87
2019-02-25T16:37:35.560Z,2.90
2019-02-25T16:40:16.051Z,3.50
2019-02-25T16:42:59.463Z,3.00
2019-02-25T16:45:40.210Z,3.00
2019-02-25T16:48:24.262Z,2.90
2019-02-25T16:51:06.872Z,3.10
2019-02-25T16:53:50.472Z,3.20
2019-02-25T16:56:29.892Z,3.30
2019-02-25T16:59:11.094Z,3.10
2019-02-25T17:01:55.856Z,2.63
2019-02-25T17:04:35.123Z,2.53
2019-02-25T17:07:18.152Z,2.80
2019-02-25T17:09:59.458Z,2.93
2019-02-25T17:12:41.562Z,3.30
2019-02-25T17:15:26.337Z,3.33
2019-02-25T17:18:05.567Z,3.67
2019-02-25T17:20:49.693Z,4.00
2019-02-25T17:23:30.197Z,3.63
2019-02-25T17:26:12.566Z,4.73
2019-02-25T17:28:54.296Z,9.90
2019-02-25T17:31:36.549Z,10.40
2019-02-25T17:34:19.211Z,9.40
2019-02-25T17:37:01.202Z,8.33
2019-02-25T17:39:42.670Z,7.13
2019-02-25T17:42:24.245Z,4.67
2019-02-25T17:45:07.770Z,4.20
2019-02-25T17:47:48.454Z,5.13
2019-02-25T17:50:30.256Z,6.93
2019-02-25T17:53:01.337Z,7.77
2019-02-25T17:55:51.194Z,6.33
2019-02-25T17:58:31.784Z,6.63
2019-02-25T18:01:12.875Z,6.10
2019-02-25T18:03:53.239Z,6.30
2019-02-25T18:06:36.203Z,5.83
2019-02-25T18:09:18.223Z,5.40
2019-02-25T18:12:00.507Z,5.20
2019-02-25T18:14:43.176Z,5.00
2019-02-25T18:17:24.790Z,5.50
2019-02-25T18:20:04.504Z,5.80
2019-02-25T18:22:45.770Z,5.87
2019-02-25T18:25:26.229Z,6.40
2019-02-25T18:28:08.374Z,6.23
2019-02-25T18:30:50.149Z,6.90
2019-02-25T18:33:31.651Z,7.80
2019-02-25T18:36:12.452Z,8.83
2019-02-25T18:38:54.811Z,9.00
2019-02-25T18:41:36.040Z,8.30
2019-02-25T18:44:16.775Z,8.30
2019-02-25T18:46:59.799Z,7.83
2019-02-25T18:49:41.133Z,7.83
2019-02-25T18:52:21.969Z,7.47
2019-02-25T18:55:04.390Z,7.33
2019-02-25T18:57:46.095Z,8.90
2019-02-25T19:00:32.372Z,9.10
2019-02-25T19:03:13.517Z,7.87
2019-02-25T19:05:55.449Z,8.07
2019-02-25T19:08:36.512Z,7.60
2019-02-25T19:11:19.044Z,7.43
2019-02-25T19:13:49.782Z,7.47
2019-02-25T19:16:39.658Z,7.30
2019-02-25T19:19:20.908Z,7.37
2019-02-25T19:22:01.645Z,7.03
2019-02-25T19:24:44.418Z,6.40
2019-02-25T19:27:27.259Z,6.70
2019-02-25T19:30:08.175Z,6.03
2019-02-25T19:32:49.451Z,6.77
2019-02-25T19:35:31.050Z,6.57
2019-02-25T19:38:15.299Z,6.80
2019-02-25T19:40:57.596Z,6.23
2019-02-25T19:43:39.943Z,6.07
2019-02-25T19:46:11.020Z,6.33
2019-02-25T19:48:59.325Z,7.37
2019-02-25T19:51:48.385Z,8.23
2019-02-25T19:54:19.117Z,6.93
2019-02-25T19:57:07.300Z,7.37
2019-02-25T19:59:50.565Z,9.10
2019-02-25T20:02:32.200Z,10.63
2019-02-25T20:05:16.523Z,9.03
2019-02-25T20:07:57.045Z,7.97
2019-02-25T20:10:37.930Z,7.77
2019-02-25T20:13:21.858Z,7.53
2019-02-25T20:16:07.954Z,7.57
2019-02-25T20:18:44.103Z,6.57
2019-02-25T20:21:27.203Z,7.43
2019-02-25T20:24:12.372Z,7.43
2019-02-25T20:26:55.061Z,7.90
2019-02-25T20:29:34.273Z,8.07
2019-02-25T20:32:16.451Z,8.57
2019-02-25T20:34:59.349Z,8.90
2019-02-25T20:37:40.888Z,8.23
2019-02-25T20:40:24.139Z,8.40
2019-02-25T20:43:05.069Z,8.20
2019-02-25T20:45:48.134Z,8.20
2019-02-25T20:48:29.662Z,7.83
2019-02-25T20:51:11.815Z,8.53
2019-02-25T20:53:52.955Z,8.67
2019-02-25T20:56:34.543Z,8.30
2019-02-25T20:59:15.382Z,8.90
2019-02-25T21:01:55.865Z,8.50
2019-02-25T21:04:36.749Z,8.50
2019-02-25T21:07:19.027Z,8.67
2019-02-25T21:10:01.001Z,7.70
2019-02-25T21:12:43.320Z,7.80
2019-02-25T21:15:24.635Z,7.53
2019-02-25T21:18:07.521Z,7.37
2019-02-25T21:20:49.383Z,7.47
2019-02-25T21:23:30.718Z,8.03
2019-02-25T21:26:11.730Z,8.17
2019-02-25T21:28:54.059Z,7.63
2019-02-25T21:31:35.087Z,7.60
2019-02-25T21:34:20.566Z,8.57
2019-02-25T21:37:00.712Z,8.40
2019-02-25T21:39:42.843Z,9.53
2019-02-25T21:42:24.675Z,8.87
2019-02-25T21:45:06.509Z,8.40
2019-02-25T21:47:47.601Z,9.03
2019-02-25T21:50:30.793Z,11.03
2019-02-25T21:53:12.219Z,10.13
2019-02-25T21:55:53.528Z,8.93
2019-02-25T21:58:35.923Z,8.50
2019-02-25T22:01:16.904Z,7.07
2019-02-25T22:03:58.414Z,7.63
2019-02-25T22:06:39.270Z,7.27
2019-02-25T22:09:35.476Z,7.80
2019-02-25T22:12:02.613Z,7.50
2019-02-25T22:14:45.491Z,7.97
2019-02-25T22:17:26.703Z,7.60
2019-02-25T22:20:09.629Z,8.03
2019-02-25T22:22:54.548Z,7.53
2019-02-25T22:25:21.386Z,7.07
2019-02-25T22:28:10.053Z,7.43
2019-02-25T22:30:54.076Z,7.67
2019-02-25T22:33:35.708Z,8.10
2019-02-25T22:36:16.726Z,7.60
2019-02-25T22:38:59.061Z,7.00
2019-02-25T22:41:42.312Z,7.37
2019-02-25T22:44:12.216Z,6.40
2019-02-25T22:47:00.971Z,8.37
2019-02-25T22:49:41.908Z,7.53
2019-02-25T22:52:13.102Z,7.30
2019-02-25T22:55:01.631Z,7.23
2019-02-25T22:57:53.505Z,7.00
2019-02-25T23:00:34.500Z,8.30
2019-02-25T23:03:17.895Z,6.87
2019-02-25T23:05:58.437Z,7.87
2019-02-25T23:08:42.055Z,7.90
2019-02-25T23:11:23.738Z,8.10
2019-02-25T23:14:04.559Z,8.20
2019-02-25T23:16:45.798Z,8.30
2019-02-25T23:19:28.207Z,6.93
2019-02-25T23:22:08.727Z,8.70
2019-02-25T23:24:50.015Z,7.13
2019-02-25T23:27:32.255Z,7.90
2019-02-25T23:30:12.993Z,8.20
2019-02-25T23:32:54.425Z,8.10
2019-02-25T23:35:34.648Z,7.97
2019-02-25T23:38:15.952Z,7.90
2019-02-25T23:40:57.043Z,9.33
2019-02-25T23:43:38.583Z,7.17
2019-02-25T23:46:23.227Z,7.83
2019-02-25T23:49:03.093Z,8.33
2019-02-25T23:51:44.180Z,8.40
2019-02-25T23:54:28.059Z,8.67
2019-02-25T23:57:09.603Z,7.70
2019-02-25T23:59:51.122Z,7.33
